Time;durP1;ratioP1;P1;durP2;ratioP2;P2;SDS_P1;SDS_P2;PMS_P1;PMS_P2;Temp;Humidity;BMP_temperature;BMP_pressure;BME280_temperature;BME280_humidity;BME280_pressure;Samples;Min_cycle;Max_cycle;Signal;HPM_P1;HPM_P2
2022/03/30 00:01:33;;;;;;;8.38;1.83;;;;;;;4.27;100.00;100902.13;5081046;28;20044;-86
2022/03/30 00:04:00;;;;;;;3.83;1.33;;;;;;;4.78;100.00;100966.44;5071078;28;20053;-87
2022/03/30 00:06:27;;;;;;;6.43;1.63;;;;;;;4.23;100.00;100885.72;5087218;28;20048;-86
2022/03/30 00:08:54;;;;;;;4.10;1.40;;;;;;;4.57;100.00;100945.91;5072641;28;20446;-86
2022/03/30 00:11:22;;;;;;;4.40;1.60;;;;;;;4.79;100.00;100963.84;5076260;28;20040;-84
2022/03/30 00:13:49;;;;;;;10.90;2.00;;;;;;;4.54;100.00;100919.16;5068276;28;20049;-86
2022/03/30 00:16:16;;;;;;;5.13;1.88;;;;;;;4.48;100.00;100965.84;5063055;28;20051;-86
2022/03/30 00:18:43;;;;;;;6.78;2.00;;;;;;;4.75;100.00;100977.72;5096125;28;20101;-87
2022/03/30 00:21:09;;;;;;;8.13;1.80;;;;;;;4.05;100.00;100941.16;5075496;28;20526;-85
2022/03/30 00:23:36;;;;;;;4.55;1.70;;;;;;;4.45;100.00;100968.50;5073427;28;20058;-88
2022/03/30 00:26:03;;;;;;;7.80;3.55;;;;;;;4.62;100.00;100989.97;5094595;28;20397;-87
2022/03/30 00:28:30;;;;;;;4.90;1.60;;;;;;;4.66;100.00;100962.25;5081826;28;20494;-87
2022/03/30 00:30:57;;;;;;;4.18;1.67;;;;;;;4.19;100.00;100970.41;5087282;28;20056;-87
2022/03/30 00:33:25;;;;;;;3.80;1.40;;;;;;;4.48;100.00;100989.19;5079530;28;20410;-87
2022/03/30 00:35:52;;;;;;;8.13;1.80;;;;;;;4.02;100.00;100980.06;5078434;28;20894;-87
2022/03/30 00:38:19;;;;;;;8.57;1.98;;;;;;;4.10;100.00;100978.25;5080518;28;20048;-87
2022/03/30 00:40:46;;;;;;;5.00;1.77;;;;;;;4.18;100.00;100936.75;5072955;28;20099;-87
2022/03/30 00:43:13;;;;;;;4.45;1.80;;;;;;;3.94;100.00;100956.78;5077731;28;20626;-87
2022/03/30 00:45:40;;;;;;;4.20;1.58;;;;;;;3.93;100.00;100913.63;5059140;28;20049;-87
2022/03/30 00:48:08;;;;;;;3.92;1.40;;;;;;;4.62;100.00;100984.78;5072682;28;20044;-85
2022/03/30 00:50:35;;;;;;;4.90;1.50;;;;;;;4.23;100.00;100955.69;5096305;28;20478;-87
2022/03/30 00:53:02;;;;;;;7.05;1.52;;;;;;;4.21;100.00;100990.28;5075310;28;20409;-87
2022/03/30 00:55:30;;;;;;;3.33;1.40;;;;;;;4.15;100.00;100989.44;5071391;28;20048;-86
2022/03/30 00:57:58;;;;;;;3.78;1.35;;;;;;;4.39;100.00;100982.34;5093793;28;20054;-86
2022/03/30 01:00:26;;;;;;;3.70;1.58;;;;;;;3.87;100.00;100941.28;5095530;28;20055;-87
2022/03/30 01:02:53;;;;;;;3.65;1.30;;;;;;;4.13;100.00;100967.03;5084072;28;20139;-87
2022/03/30 01:05:21;;;;;;;3.42;1.40;;;;;;;3.90;100.00;100952.50;5074581;28;20037;-86
2022/03/30 01:07:47;;;;;;;5.30;1.38;;;;;;;4.55;100.00;100949.38;5074534;28;20044;-85
2022/03/30 01:10:17;;;;;;;3.55;1.48;;;;;;;5.00;100.00;100967.09;5076299;28;20508;-87
2022/03/30 01:12:44;;;;;;;3.10;1.40;;;;;;;4.96;100.00;100963.69;5072389;28;20051;-86
2022/03/30 01:15:13;;;;;;;3.05;1.30;;;;;;;4.98;100.00;100943.75;5061115;28;20123;-87
2022/03/30 01:17:41;;;;;;;3.67;1.38;;;;;;;4.95;100.00;100941.19;5055664;28;20052;-86
2022/03/30 01:20:10;;;;;;;2.25;1.20;;;;;;;4.69;100.00;100908.63;5054167;28;20131;-87
2022/03/30 01:22:38;;;;;;;4.07;1.35;;;;;;;4.94;100.00;100953.31;5074170;28;20912;-87
2022/03/30 01:25:05;;;;;;;2.97;1.20;;;;;;;5.02;100.00;100948.03;5091151;28;20058;-88
2022/03/30 01:27:32;;;;;;;2.42;1.10;;;;;;;4.97;100.00;100933.41;5092256;28;20139;-88
2022/03/30 01:33:05;;;;;;;3.33;1.20;;;;;;;5.24;100.00;100925.28;5074207;28;20054;-87
2022/03/30 01:35:33;;;;;;;3.05;1.30;;;;;;;4.81;100.00;100899.81;5064158;28;20071;-88
2022/03/30 01:38:01;;;;;;;3.92;1.30;;;;;;;5.09;100.00;100933.25;5092359;28;20048;-87
2022/03/30 01:40:28;;;;;;;4.32;1.30;;;;;;;4.80;100.00;100889.47;5095449;28;20048;-88
2022/03/30 01:42:54;;;;;;;4.07;1.50;;;;;;;5.13;100.00;100933.22;5081764;28;20048;-88
2022/03/30 01:45:21;;;;;;;4.95;1.45;;;;;;;4.73;100.00;100912.03;5072833;28;20135;-87
2022/03/30 01:47:58;;;;;;;4.53;1.40;;;;;;;4.84;100.00;100911.94;5080527;28;20534;-88
2022/03/30 01:50:26;;;;;;;1.80;1.30;;;;;;;5.00;100.00;100929.03;5094210;28;20044;-88
2022/03/30 01:52:54;;;;;;;3.58;1.48;;;;;;;4.85;100.00;100919.69;5073671;28;20558;-88
2022/03/30 01:55:20;;;;;;;3.05;1.30;;;;;;;4.46;100.00;100908.84;5074677;28;20123;-87
2022/03/30 01:57:47;;;;;;;2.58;1.30;;;;;;;4.59;100.00;100913.94;5092051;28;20466;-87
2022/03/30 02:00:17;;;;;;;3.38;1.38;;;;;;;4.47;100.00;100914.91;5094792;28;20138;-88
2022/03/30 02:02:43;;;;;;;4.03;1.50;;;;;;;4.35;100.00;100908.94;5074348;28;20131;-89
2022/03/30 02:05:10;;;;;;;4.43;1.50;;;;;;;4.24;100.00;100904.72;5073442;28;20493;-89
2022/03/30 02:07:39;;;;;;;5.00;1.50;;;;;;;4.06;100.00;100910.94;5087758;28;20054;-88
2022/03/30 02:10:08;;;;;;;2.85;1.40;;;;;;;3.91;100.00;100898.94;5092656;28;20055;-88
2022/03/30 02:12:38;;;;;;;4.35;1.25;;;;;;;4.01;100.00;100907.53;5082280;28;20434;-87
2022/03/30 02:15:06;;;;;;;3.85;1.50;;;;;;;4.18;100.00;100898.72;5074317;28;20052;-89
2022/03/30 02:17:33;;;;;;;6.55;1.58;;;;;;;4.38;100.00;100906.31;5074013;28;20054;-89
2022/03/30 02:20:00;;;;;;;6.47;1.48;;;;;;;4.18;100.00;100895.28;5086116;28;20509;-87
2022/03/30 02:22:27;;;;;;;4.47;1.60;;;;;;;3.82;100.00;100905.03;5081360;28;20051;-87
2022/03/30 02:24:53;;;;;;;4.97;1.33;;;;;;;3.80;100.00;100889.50;5053712;28;20049;-86
2022/03/30 02:27:20;;;;;;;3.80;1.50;;;;;;;3.79;100.00;100863.66;5082858;28;20359;-86
2022/03/30 02:29:49;;;;;;;8.57;2.00;;;;;;;3.70;100.00;100856.81;5083668;28;20041;-86
2022/03/30 02:32:17;;;;;;;4.95;1.63;;;;;;;4.06;100.00;100904.00;5071294;28;20049;-86
2022/03/30 02:34:44;;;;;;;5.07;1.50;;;;;;;3.98;100.00;100903.19;5087097;28;20124;-86
2022/03/30 02:37:12;;;;;;;5.53;1.50;;;;;;;4.01;100.00;100903.19;5071791;28;20071;-85
2022/03/30 02:39:39;;;;;;;6.13;2.67;;;;;;;4.00;100.00;100909.22;5071523;28;20671;-86
2022/03/30 02:42:09;;;;;;;6.65;1.70;;;;;;;3.31;100.00;100873.44;5071736;28;20048;-86
2022/03/30 02:44:37;;;;;;;6.03;2.03;;;;;;;3.59;100.00;100915.56;5064562;28;20525;-86
2022/03/30 02:47:05;;;;;;;6.05;1.90;;;;;;;3.45;100.00;100917.38;5078509;28;20055;-87
2022/03/30 02:49:32;;;;;;;6.80;2.10;;;;;;;3.64;100.00;100916.38;5072570;28;20040;-87
2022/03/30 02:51:59;;;;;;;8.45;2.00;;;;;;;3.69;100.00;100888.75;5071299;28;20049;-87
2022/03/30 02:54:26;;;;;;;10.88;2.42;;;;;;;3.76;100.00;100892.16;5093763;28;20409;-87
2022/03/30 02:56:53;;;;;;;8.50;2.35;;;;;;;3.66;100.00;100903.44;5093968;28;20062;-87
2022/03/30 02:59:20;;;;;;;11.40;2.70;;;;;;;3.59;100.00;100889.66;5094186;28;20133;-88
2022/03/30 03:01:47;;;;;;;8.40;2.22;;;;;;;3.76;100.00;100897.34;5083279;28;20401;-87
2022/03/30 03:04:14;;;;;;;12.52;2.05;;;;;;;3.61;100.00;100891.38;5071604;28;20112;-87
2022/03/30 03:06:41;;;;;;;8.38;2.25;;;;;;;3.82;100.00;100909.38;5092425;28;20113;-87
2022/03/30 03:09:08;;;;;;;10.57;2.20;;;;;;;3.77;100.00;100899.91;5082472;28;20055;-88
2022/03/30 03:11:36;;;;;;;7.35;1.95;;;;;;;3.78;100.00;100903.34;5072918;28;20564;-88
2022/03/30 03:14:05;;;;;;;6.97;2.25;;;;;;;3.65;100.00;100881.88;5067866;28;20053;-88
2022/03/30 03:16:33;;;;;;;10.15;2.30;;;;;;;3.82;100.00;100896.44;5072343;28;20068;-88
2022/03/30 03:19:01;;;;;;;9.85;2.00;;;;;;;3.94;100.00;100873.00;5092160;28;20143;-87
2022/03/30 03:21:27;;;;;;;8.05;2.22;;;;;;;3.56;100.00;100877.59;5075630;28;20045;-88
2022/03/30 03:23:54;;;;;;;8.10;1.90;;;;;;;3.50;100.00;100879.38;5078331;28;20557;-87
2022/03/30 03:26:21;;;;;;;9.13;1.80;;;;;;;3.63;100.00;100857.72;5092020;28;20051;-88
2022/03/30 03:28:48;;;;;;;8.35;2.85;;;;;;;3.07;100.00;100833.03;5092177;28;20044;-88
2022/03/30 03:31:15;;;;;;;9.43;2.10;;;;;;;3.37;100.00;100850.13;5069270;28;20106;-88
2022/03/30 03:33:42;;;;;;;5.47;1.80;;;;;;;3.89;100.00;100872.19;5068358;28;20448;-87
2022/03/30 03:36:08;;;;;;;8.05;2.08;;;;;;;3.35;100.00;100841.50;5072546;28;20055;-88
2022/03/30 03:38:35;;;;;;;7.70;2.00;;;;;;;3.03;100.00;100825.28;5078181;28;20071;-88
2022/03/30 03:41:02;;;;;;;7.55;2.28;;;;;;;3.51;100.00;100847.44;5084208;28;20059;-88
2022/03/30 03:43:29;;;;;;;11.38;2.35;;;;;;;2.98;100.00;100854.63;5060762;28;20063;-87
2022/03/30 03:45:56;;;;;;;13.70;2.95;;;;;;;3.50;100.00;100923.38;5070759;28;20460;-87
2022/03/30 03:48:23;;;;;;;7.38;1.70;;;;;;;3.42;100.00;100906.16;5072526;28;20139;-87
2022/03/30 03:50:50;;;;;;;6.75;2.25;;;;;;;3.71;100.00;100891.31;5068297;28;20394;-88
2022/03/30 03:53:16;;;;;;;6.35;2.38;;;;;;;3.56;100.00;100905.22;5065000;28;20116;-88
2022/03/30 03:55:43;;;;;;;6.90;2.13;;;;;;;3.10;100.00;100830.41;5072733;28;20045;-88
2022/03/30 03:58:11;;;;;;;6.95;1.92;;;;;;;3.79;100.00;100907.69;5072851;28;20048;-87
2022/03/30 04:00:38;;;;;;;10.82;1.98;;;;;;;3.18;100.00;100890.75;5086682;28;20048;-88
2022/03/30 04:03:04;;;;;;;7.30;2.15;;;;;;;2.84;100.00;100901.25;5077300;28;20059;-87
2022/03/30 04:05:32;;;;;;;6.60;1.75;;;;;;;3.29;100.00;100894.13;5072588;28;20478;-87
2022/03/30 04:07:59;;;;;;;7.93;1.77;;;;;;;3.15;100.00;100906.28;5072564;28;20451;-87
2022/03/30 04:10:26;;;;;;;3.75;1.60;;;;;;;2.94;100.00;100883.94;5057208;28;20138;-88
2022/03/30 04:12:53;;;;;;;8.23;1.70;;;;;;;2.65;100.00;100900.41;5072543;28;20440;-87
2022/03/30 04:15:19;;;;;;;7.43;1.83;;;;;;;3.08;100.00;100887.38;5091147;28;20044;-87
2022/03/30 04:17:48;;;;;;;4.88;1.70;;;;;;;3.03;100.00;100897.72;5083166;28;20052;-88
2022/03/30 04:20:15;;;;;;;11.73;3.55;;;;;;;2.93;100.00;100897.75;5081656;28;20391;-87
2022/03/30 04:22:43;;;;;;;4.88;1.70;;;;;;;3.03;100.00;100902.03;5080404;28;20044;-86
2022/03/30 04:25:11;;;;;;;12.02;1.95;;;;;;;2.93;100.00;100913.28;5070585;28;20091;-88
2022/03/30 04:27:45;;;;;;;8.88;2.03;;;;;;;3.00;100.00;100889.97;5067667;28;20053;-87
2022/03/30 04:30:12;;;;;;;8.10;2.13;;;;;;;3.02;100.00;100895.13;5051000;28;20438;-88
2022/03/30 04:32:39;;;;;;;8.13;1.73;;;;;;;2.95;100.00;100911.53;5058508;28;20048;-87
2022/03/30 04:35:06;;;;;;;13.10;2.40;;;;;;;3.18;100.00;100886.44;5071958;28;20130;-88
2022/03/30 04:37:33;;;;;;;9.82;2.35;;;;;;;3.16;100.00;100897.66;5070629;28;20044;-88
2022/03/30 04:40:00;;;;;;;7.82;2.20;;;;;;;3.34;100.00;100866.50;5070512;28;20139;-87
2022/03/30 04:42:27;;;;;;;7.10;1.80;;;;;;;3.30;100.00;100872.59;5082022;28;20045;-88
2022/03/30 04:44:54;;;;;;;8.05;2.40;;;;;;;3.16;100.00;100874.38;5063815;28;20056;-88
2022/03/30 04:47:21;;;;;;;11.93;1.90;;;;;;;3.42;100.00;100893.22;5067392;28;20059;-88
2022/03/30 04:49:47;;;;;;;8.60;2.08;;;;;;;3.19;100.00;100877.81;5063842;28;20394;-88
2022/03/30 04:52:14;;;;;;;8.60;1.77;;;;;;;3.57;100.00;100858.59;5081659;28;20045;-87
2022/03/30 04:54:42;;;;;;;10.35;2.70;;;;;;;3.50;100.00;100882.81;5070887;28;20490;-87
2022/03/30 04:57:09;;;;;;;7.53;2.30;;;;;;;3.31;100.00;100873.44;5071019;28;20044;-87
2022/03/30 04:59:36;;;;;;;8.52;3.10;;;;;;;3.25;100.00;100861.38;5052205;28;20067;-87
2022/03/30 05:02:03;;;;;;;9.88;2.30;;;;;;;3.69;100.00;100882.72;5054605;28;20415;-87
2022/03/30 05:04:32;;;;;;;7.38;2.05;;;;;;;3.79;100.00;100868.81;5074662;28;20053;-87
2022/03/30 05:06:59;;;;;;;10.52;2.20;;;;;;;3.66;100.00;100870.63;5074238;28;20071;-86
2022/03/30 05:09:26;;;;;;;10.20;3.45;;;;;;;3.50;100.00;100830.19;5074295;28;20506;-87
2022/03/30 05:11:52;;;;;;;11.23;1.90;;;;;;;2.89;100.00;100790.03;5064216;28;20398;-87
2022/03/30 05:14:19;;;;;;;8.05;2.40;;;;;;;3.38;100.00;100842.34;5076724;28;20053;-86
2022/03/30 05:16:46;;;;;;;8.07;2.08;;;;;;;3.54;100.00;100862.94;5094754;28;20248;-87
2022/03/30 05:19:13;;;;;;;10.70;2.13;;;;;;;3.41;100.00;100841.44;5094741;28;20079;-86
2022/03/30 05:21:40;;;;;;;9.80;2.22;;;;;;;3.28;100.00;100837.25;5081167;28;20044;-86
2022/03/30 05:24:07;;;;;;;10.20;2.10;;;;;;;3.20;100.00;100834.69;5069589;28;20061;-86
2022/03/30 05:26:33;;;;;;;5.43;1.98;;;;;;;3.19;100.00;100807.09;5093648;28;20066;-86
2022/03/30 05:29:00;;;;;;;14.00;3.97;;;;;;;3.28;100.00;100850.19;5084048;28;20128;-86
2022/03/30 05:31:27;;;;;;;7.22;2.03;;;;;;;3.31;100.00;100861.38;5073601;28;20051;-86
2022/03/30 05:33:55;;;;;;;8.15;2.25;;;;;;;3.12;100.00;100859.75;5073862;28;20079;-87
2022/03/30 05:36:22;;;;;;;12.52;2.42;;;;;;;3.42;100.00;100850.94;5068409;28;20499;-86
2022/03/30 05:38:50;;;;;;;10.23;2.10;;;;;;;3.29;100.00;100857.91;5065331;28;20052;-87
2022/03/30 05:41:18;;;;;;;13.15;2.65;;;;;;;3.33;100.00;100858.75;5070928;28;20087;-86
2022/03/30 05:43:45;;;;;;;12.55;2.22;;;;;;;3.26;100.00;100852.78;5063383;28;20052;-85
2022/03/30 05:46:12;;;;;;;7.68;2.70;;;;;;;3.37;100.00;100844.94;5072884;28;20116;-86
2022/03/30 05:48:39;;;;;;;11.95;2.20;;;;;;;3.55;100.00;100869.84;5070065;28;20068;-87
2022/03/30 05:51:06;;;;;;;14.57;2.88;;;;;;;3.52;100.00;100872.44;5059696;28;20041;-86
2022/03/30 05:53:33;;;;;;;7.75;2.20;;;;;;;3.28;100.00;100860.53;5066880;28;20135;-87
2022/03/30 05:56:01;;;;;;;10.65;2.90;;;;;;;3.46;100.00;100852.63;5061752;28;20049;-87
2022/03/30 05:58:28;;;;;;;9.75;3.55;;;;;;;3.20;100.00;100790.69;5074653;28;20047;-86
2022/03/30 06:00:55;;;;;;;12.30;3.70;;;;;;;3.34;100.00;100844.94;5063178;28;20143;-87
2022/03/30 06:03:22;;;;;;;9.27;2.60;;;;;;;3.28;100.00;100834.66;5064356;28;20558;-88
2022/03/30 06:05:53;;;;;;;13.65;2.90;;;;;;;3.52;100.00;100857.75;5069240;28;20049;-86
2022/03/30 06:08:19;;;;;;;11.07;2.40;;;;;;;3.21;100.00;100868.31;5066961;28;20064;-88
2022/03/30 06:10:46;;;;;;;9.75;2.75;;;;;;;3.16;100.00;100856.28;5068106;28;20048;-87
2022/03/30 06:13:13;;;;;;;8.00;1.88;;;;;;;3.38;100.00;100852.69;5065992;28;20053;-87
2022/03/30 06:15:40;;;;;;;16.60;3.42;;;;;;;3.29;100.00;100859.66;5068234;28;20048;-87
2022/03/30 06:18:10;;;;;;;9.82;2.60;;;;;;;3.54;100.00;100869.00;5066653;28;20187;-87
2022/03/30 06:20:39;;;;;;;10.40;2.10;;;;;;;3.63;100.00;100862.91;5064939;28;20102;-89
2022/03/30 06:23:06;;;;;;;11.50;2.45;;;;;;;3.58;100.00;100865.50;5064767;28;20040;-89
2022/03/30 06:25:33;;;;;;;8.30;2.40;;;;;;;3.49;100.00;100847.44;5063192;28;20045;-89
2022/03/30 06:28:00;;;;;;;6.18;1.67;;;;;;;3.63;100.00;100855.13;5064681;28;20051;-88
2022/03/30 06:30:27;;;;;;;10.88;1.95;;;;;;;3.42;100.00;100856.13;5067345;28;20127;-86
2022/03/30 06:32:54;;;;;;;13.95;2.75;;;;;;;3.42;100.00;100854.38;5061595;28;20052;-88
2022/03/30 06:35:21;;;;;;;12.55;2.35;;;;;;;3.61;100.00;100844.78;5071496;28;20048;-87
2022/03/30 06:37:48;;;;;;;9.05;2.03;;;;;;;3.80;100.00;100876.56;5064611;28;20051;-88
2022/03/30 06:40:17;;;;;;;11.55;2.47;;;;;;;3.74;100.00;100857.63;5064651;28;20049;-87
2022/03/30 06:42:44;;;;;;;8.98;2.92;;;;;;;3.35;100.00;100842.38;5066890;28;20045;-88
2022/03/30 06:45:11;;;;;;;14.95;3.05;;;;;;;3.63;100.00;100868.06;5064845;28;20041;-88
2022/03/30 06:47:39;;;;;;;12.50;2.45;;;;;;;4.02;100.00;100871.22;5068733;28;20069;-88
2022/03/30 06:50:07;;;;;;;7.60;2.42;;;;;;;3.82;100.00;100853.25;5064784;28;20056;-88
2022/03/30 06:52:35;;;;;;;9.80;2.33;;;;;;;3.61;100.00;100860.31;5064077;28;20135;-87
2022/03/30 06:55:06;;;;;;;10.35;2.63;;;;;;;3.85;100.00;100852.38;5061679;28;20049;-87
2022/03/30 06:57:33;;;;;;;9.52;2.25;;;;;;;3.79;100.00;100861.91;5075045;28;20554;-88
2022/03/30 07:00:00;;;;;;;9.20;2.30;;;;;;;3.92;100.00;100859.22;5063968;28;20052;-87
2022/03/30 07:02:27;;;;;;;12.05;2.70;;;;;;;4.58;100.00;100866.34;5066658;28;20076;-91
2022/03/30 07:04:53;;;;;;;7.50;2.15;;;;;;;4.87;100.00;100862.56;5076842;28;20060;-88
2022/03/30 07:10:25;;;;;;;12.88;2.58;;;;;;;5.03;100.00;100868.44;5071854;28;20052;-88
2022/03/30 07:12:53;;;;;;;7.95;2.90;;;;;;;5.72;100.00;100867.50;5070064;28;20048;-88
2022/03/30 07:15:20;;;;;;;7.53;2.25;;;;;;;5.26;100.00;100886.34;5071222;28;20048;-87
2022/03/30 07:18:01;;;;;;;12.73;2.58;;;;;;;5.69;100.00;100876.19;5072276;28;20131;-88
2022/03/30 07:20:32;;;;;;;10.52;2.47;;;;;;;5.30;100.00;100856.84;5071767;28;20059;-88
2022/03/30 07:22:59;;;;;;;13.65;2.25;;;;;;;5.82;99.64;100873.38;5070001;28;20479;-89
2022/03/30 07:25:28;;;;;;;9.85;2.22;;;;;;;6.01;100.00;100859.25;5072024;28;20051;-89
2022/03/30 07:28:02;;;;;;;9.63;2.53;;;;;;;6.99;94.53;100871.31;5077606;28;20067;-93
2022/03/30 07:30:30;;;;;;;10.00;2.50;;;;;;;7.32;93.40;100871.50;5076208;28;20486;-93
2022/03/30 07:32:58;;;;;;;8.98;2.08;;;;;;;7.56;91.00;100870.06;5074778;28;20058;-93
2022/03/30 07:35:32;;;;;;;7.82;2.03;;;;;;;5.97;91.58;100880.13;5055781;28;20056;-92
2022/03/30 07:38:00;;;;;;;9.40;1.70;;;;;;;5.78;98.39;100832.75;5054974;28;20079;-92
2022/03/30 07:40:29;;;;;;;11.75;2.80;;;;;;;6.52;94.66;100873.13;5053995;28;20053;-93
2022/03/30 07:42:57;;;;;;;6.80;2.05;;;;;;;6.85;96.78;100866.38;5067502;28;20535;-88
2022/03/30 07:45:25;;;;;;;9.73;2.25;;;;;;;7.38;97.51;100864.41;5072155;28;20058;-88
2022/03/30 07:47:52;;;;;;;5.97;2.08;;;;;;;6.80;88.88;100847.41;5071900;28;20455;-88
2022/03/30 07:50:19;;;;;;;10.23;2.30;;;;;;;7.84;88.18;100843.34;5071999;28;20045;-88
2022/03/30 07:52:47;;;;;;;8.90;2.30;;;;;;;6.78;92.97;100838.75;5065286;28;20047;-87
2022/03/30 07:55:15;;;;;;;11.02;2.53;;;;;;;7.31;87.79;100869.75;5052314;28;20506;-88
2022/03/30 07:57:42;;;;;;;7.75;2.33;;;;;;;7.63;87.37;100850.78;5052653;28;20051;-88
2022/03/30 08:00:12;;;;;;;8.07;2.35;;;;;;;7.72;84.86;100866.22;5061169;28;20044;-88
2022/03/30 08:02:39;;;;;;;10.35;2.80;;;;;;;7.14;85.62;100855.38;5057251;28;20491;-87
2022/03/30 08:05:10;;;;;;;9.95;2.60;;;;;;;6.44;87.90;100868.88;5072099;28;20482;-88
2022/03/30 08:07:37;;;;;;;8.60;2.45;;;;;;;6.52;89.71;100862.72;5065979;28;20041;-87
2022/03/30 08:10:04;;;;;;;9.13;1.85;;;;;;;6.55;89.92;100865.22;5050495;28;20136;-87
2022/03/30 08:12:31;;;;;;;9.13;2.25;;;;;;;6.63;90.92;100860.75;5058128;28;21224;-86
2022/03/30 08:14:58;;;;;;;8.45;1.90;;;;;;;6.30;100.00;100864.81;5055394;28;20045;-86
2022/03/30 08:17:25;;;;;;;9.65;1.95;;;;;;;6.24;100.00;100879.66;5071159;28;20112;-85
2022/03/30 08:19:52;;;;;;;9.43;1.95;;;;;;;6.15;100.00;100843.41;5065498;28;20048;-85
2022/03/30 08:22:30;;;;;;;8.38;1.60;;;;;;;6.69;100.00;100854.56;5057690;28;20040;-86
2022/03/30 08:25:00;;;;;;;7.63;1.70;;;;;;;6.55;100.00;100878.22;5057484;28;20076;-87
2022/03/30 08:27:29;;;;;;;5.85;1.60;;;;;;;5.67;100.00;100869.31;5068380;28;20075;-85
2022/03/30 08:29:58;;;;;;;6.55;1.63;;;;;;;5.71;100.00;100878.75;5072256;28;20459;-87
2022/03/30 08:32:26;;;;;;;9.60;2.30;;;;;;;5.13;100.00;100878.72;5069890;28;20044;-87
2022/03/30 08:34:54;;;;;;;5.95;2.03;;;;;;;5.97;100.00;100874.94;5070179;28;20135;-84
2022/03/30 08:37:22;;;;;;;8.23;1.70;;;;;;;6.42;100.00;100867.22;5072008;28;20044;-86
2022/03/30 08:39:53;;;;;;;9.40;1.92;;;;;;;6.87;100.00;100880.25;5075012;28;20045;-85
2022/03/30 08:42:21;;;;;;;6.72;1.83;;;;;;;6.11;100.00;100804.50;5073977;28;20083;-86
2022/03/30 08:44:49;;;;;;;7.72;2.67;;;;;;;6.55;100.00;100858.31;5068432;28;20128;-87
2022/03/30 08:47:17;;;;;;;8.20;1.80;;;;;;;6.44;100.00;100855.03;5075545;28;20123;-86
2022/03/30 08:49:47;;;;;;;8.63;1.85;;;;;;;6.38;100.00;100843.00;5075363;28;20049;-86
2022/03/30 08:52:14;;;;;;;7.80;1.90;;;;;;;7.22;100.00;100865.59;5072375;28;20088;-86
2022/03/30 08:54:46;;;;;;;7.28;1.75;;;;;;;7.60;98.02;100861.31;5068954;28;20045;-84
2022/03/30 08:57:14;;;;;;;10.02;2.65;;;;;;;7.06;100.00;100838.19;5055378;28;20446;-86
2022/03/30 09:00:19;;;;;;;12.40;2.17;;;;;;;6.95;100.00;100862.69;5074203;28;20048;-86
2022/03/30 09:02:50;;;;;;;11.85;2.25;;;;;;;7.35;97.80;100854.03;5062654;28;20506;-86
2022/03/30 09:05:22;;;;;;;9.95;1.88;;;;;;;6.96;97.80;100847.97;5075800;28;20102;-86
2022/03/30 09:07:52;;;;;;;7.63;1.90;;;;;;;6.69;95.43;100855.41;5075394;28;20143;-86
2022/03/30 09:10:24;;;;;;;9.05;2.35;;;;;;;6.68;97.34;100851.13;5070829;28;20049;-87
2022/03/30 09:12:52;;;;;;;9.50;2.05;;;;;;;6.51;100.00;100864.44;5064702;28;20094;-87
2022/03/30 09:15:20;;;;;;;4.15;1.50;;;;;;;5.42;100.00;100869.66;5073382;28;20127;-85
2022/03/30 09:18:04;;;;;;;3.55;1.30;;;;;;;4.18;100.00;100895.28;5075414;28;20040;-87
2022/03/30 09:20:36;;;;;;;4.97;1.30;;;;;;;4.03;100.00;100861.72;5074807;28;20070;-88
2022/03/30 09:23:05;;;;;;;3.40;1.30;;;;;;;3.96;100.00;100859.16;5072117;28;20151;-85
2022/03/30 09:25:50;;;;;;;3.30;1.20;;;;;;;4.10;100.00;100850.44;5054107;28;20128;-87
2022/03/30 09:28:19;;;;;;;3.17;1.35;;;;;;;4.50;100.00;100853.50;5063613;28;20041;-87
2022/03/30 09:30:47;;;;;;;5.20;1.50;;;;;;;4.80;100.00;100841.06;5075455;28;20044;-85
2022/03/30 09:33:19;;;;;;;2.67;1.30;;;;;;;5.32;100.00;100835.16;5075192;28;20466;-85
2022/03/30 09:35:47;;;;;;;5.35;1.45;;;;;;;4.90;100.00;100821.88;5074384;28;20100;-86
2022/03/30 09:38:17;;;;;;;5.60;1.88;;;;;;;5.97;100.00;100838.53;5074830;28;20052;-85
2022/03/30 09:40:48;;;;;;;7.50;2.53;;;;;;;6.03;100.00;100836.69;5074240;28;20052;-87
2022/03/30 09:43:25;;;;;;;6.70;1.50;;;;;;;6.22;100.00;100832.03;5073695;28;20053;-87
2022/03/30 09:46:03;;;;;;;6.15;1.60;;;;;;;6.35;100.00;100830.03;5075541;28;20530;-87
2022/03/30 09:48:32;;;;;;;11.02;2.10;;;;;;;6.53;100.00;100817.56;5074180;28;20060;-87
2022/03/30 09:51:02;;;;;;;9.93;2.22;;;;;;;6.38;100.00;100827.41;5074302;28;20049;-86
2022/03/30 09:53:30;;;;;;;8.85;2.35;;;;;;;6.56;100.00;100817.53;5070775;28;20059;-85
2022/03/30 09:56:01;;;;;;;9.10;2.15;;;;;;;6.56;100.00;100823.56;5055021;28;20051;-86
2022/03/30 09:58:31;;;;;;;13.13;2.17;;;;;;;6.94;100.00;100805.47;5065019;28;20048;-86
2022/03/30 10:01:22;;;;;;;7.20;1.83;;;;;;;6.23;100.00;100794.75;5073540;28;20048;-87
2022/03/30 10:03:49;;;;;;;8.50;2.25;;;;;;;6.43;100.00;100819.53;5071517;28;20044;-88
2022/03/30 10:06:20;;;;;;;4.95;1.60;;;;;;;6.72;100.00;100810.28;5073067;28;20044;-88
2022/03/30 10:08:50;;;;;;;8.75;2.08;;;;;;;7.10;100.00;100811.19;5073544;28;20492;-88
2022/03/30 10:11:17;;;;;;;5.43;1.85;;;;;;;7.27;96.83;100793.44;5072756;28;20128;-88
2022/03/30 10:13:47;;;;;;;5.10;1.75;;;;;;;7.38;91.67;100788.88;5071958;28;20131;-87
2022/03/30 10:16:34;;;;;;;9.23;1.88;;;;;;;7.58;100.00;100790.13;5073117;28;20049;-88
2022/03/30 10:19:01;;;;;;;7.20;1.98;;;;;;;7.22;98.11;100809.19;5073521;28;20048;-88
2022/03/30 10:21:40;;;;;;;8.07;2.13;;;;;;;6.43;100.00;100829.91;5073181;28;20554;-87
2022/03/30 10:24:41;;;;;;;8.90;1.70;;;;;;;6.55;100.00;100829.69;5072866;28;20523;-87
2022/03/30 10:27:32;;;;;;;7.10;1.60;;;;;;;6.04;100.00;100832.34;5071807;28;20041;-87
2022/03/30 10:30:02;;;;;;;5.60;1.50;;;;;;;6.72;100.00;100812.88;5073726;28;20542;-87
2022/03/30 10:32:37;;;;;;;8.55;1.60;;;;;;;6.63;100.00;100826.94;5067782;28;20709;-87
2022/03/30 10:35:10;;;;;;;6.70;1.70;;;;;;;6.98;100.00;100820.16;5071318;28;20052;-87
2022/03/30 10:37:55;;;;;;;3.47;1.30;;;;;;;6.86;100.00;100821.25;5057886;28;20050;-88
2022/03/30 10:40:27;;;;;;;4.25;1.40;;;;;;;6.58;100.00;100823.56;5068287;28;20472;-87
2022/03/30 10:43:00;;;;;;;6.07;1.58;;;;;;;5.88;100.00;100818.75;5062239;28;20493;-86
2022/03/30 10:45:44;;;;;;;5.50;1.30;;;;;;;6.53;100.00;100836.63;5072736;28;20066;-85
2022/03/30 10:48:28;;;;;;;3.60;1.20;;;;;;;5.73;100.00;100837.16;5074276;28;20380;-87
2022/03/30 10:50:58;;;;;;;6.35;1.50;;;;;;;5.71;100.00;100824.19;5072521;28;20075;-85
2022/03/30 10:53:34;;;;;;;4.07;1.50;;;;;;;6.20;100.00;100835.53;5070722;28;20059;-86
2022/03/30 10:56:16;;;;;;;7.22;1.42;;;;;;;6.25;100.00;100842.38;5072346;28;20517;-86
2022/03/30 10:58:48;;;;;;;6.10;1.38;;;;;;;5.61;100.00;100849.47;5071267;28;20041;-85
2022/03/30 11:01:18;;;;;;;7.65;1.52;;;;;;;6.02;100.00;100841.91;5071046;28;20044;-86
2022/03/30 11:04:10;;;;;;;4.13;1.30;;;;;;;6.13;100.00;100839.16;5069734;28;20048;-87
2022/03/30 11:06:39;;;;;;;4.15;1.30;;;;;;;5.38;100.00;100820.38;5071248;28;20078;-86
2022/03/30 11:09:07;;;;;;;5.78;1.60;;;;;;;5.43;100.00;100831.56;5072303;28;20071;-86
2022/03/30 11:11:42;;;;;;;4.70;1.65;;;;;;;5.54;100.00;100821.00;5070993;28;20087;-86
2022/03/30 11:14:24;;;;;;;6.25;1.60;;;;;;;6.03;100.00;100831.47;5065930;28;20059;-86
2022/03/30 11:16:54;;;;;;;5.55;1.30;;;;;;;5.77;100.00;100823.22;5052012;28;20045;-86
2022/03/30 11:19:28;;;;;;;6.15;1.50;;;;;;;5.65;100.00;100816.50;5069575;28;20076;-86
2022/03/30 11:22:09;;;;;;;4.35;1.55;;;;;;;5.78;100.00;100799.81;5070369;28;20056;-86
2022/03/30 11:24:37;;;;;;;9.38;1.60;;;;;;;5.64;100.00;100820.81;5071325;28;20601;-86
2022/03/30 11:27:04;;;;;;;6.60;1.50;;;;;;;5.96;100.00;100810.84;5070525;28;20040;-86
2022/03/30 11:29:45;;;;;;;6.05;1.45;;;;;;;6.23;100.00;100799.06;5071421;28;20406;-86
2022/03/30 11:32:23;;;;;;;5.78;1.80;;;;;;;6.60;100.00;100800.97;5068564;28;20072;-86
2022/03/30 11:34:56;;;;;;;7.63;2.75;;;;;;;6.54;100.00;100783.72;5070490;28;20052;-86
2022/03/30 11:37:32;;;;;;;4.75;1.90;;;;;;;6.22;100.00;100806.03;5070779;28;20719;-86
2022/03/30 11:40:02;;;;;;;10.38;1.83;;;;;;;7.16;100.00;100788.47;5067195;28;20087;-86